Time;durP1;ratioP1;P1;durP2;ratioP2;P2;SDS_P1;SDS_P2;PMS_P1;PMS_P2;Temp;Humidity;BMP_temperature;BMP_pressure;BME280_temperature;BME280_humidity;BME280_pressure;Samples;Min_cycle;Max_cycle;Signal;HPM_P1;HPM_P2
2023/10/04 00:00:20;;;;;;;13.40;3.65;;;12.10;99.90;;;;;;5024955;28;20041;-94
2023/10/04 00:02:49;;;;;;;12.63;3.17;;;12.10;99.90;;;;;;4999934;28;20022;-94
2023/10/04 00:05:19;;;;;;;16.15;3.13;;;12.10;99.90;;;;;;5018104;28;20463;-96
2023/10/04 00:07:49;;;;;;;9.93;3.22;;;12.10;99.90;;;;;;5002465;28;20030;-94
2023/10/04 00:10:16;;;;;;;17.52;3.55;;;12.10;99.90;;;;;;5019424;28;20045;-94
2023/10/04 00:12:43;;;;;;;16.08;3.40;;;12.10;99.90;;;;;;5002419;28;20029;-96
2023/10/04 00:15:10;;;;;;;11.18;3.53;;;12.10;99.90;;;;;;5022269;28;20065;-95
2023/10/04 00:17:40;;;;;;;16.33;3.40;;;12.00;99.90;;;;;;5006341;28;20044;-96
2023/10/04 00:20:08;;;;;;;15.70;3.95;;;12.00;99.90;;;;;;5006449;28;20041;-94
2023/10/04 00:22:36;;;;;;;11.35;2.63;;;12.00;99.90;;;;;;5025114;28;20033;-93
2023/10/04 00:25:03;;;;;;;13.43;3.60;;;11.90;99.90;;;;;;5037390;28;20010;-86
2023/10/04 00:27:30;;;;;;;17.08;2.85;;;11.90;99.90;;;;;;5021114;28;20114;-90
2023/10/04 00:29:56;;;;;;;13.98;3.30;;;11.90;99.90;;;;;;5014069;28;20037;-95
2023/10/04 00:32:22;;;;;;;13.93;3.00;;;11.90;99.90;;;;;;5008001;28;20026;-94
2023/10/04 00:34:48;;;;;;;13.65;3.33;;;11.90;99.90;;;;;;5011628;28;20046;-95
2023/10/04 00:37:15;;;;;;;11.15;3.78;;;11.90;99.90;;;;;;5007807;28;20041;-88
2023/10/04 00:39:41;;;;;;;13.27;3.05;;;11.90;99.90;;;;;;5013062;28;20041;-94
2023/10/04 00:42:08;;;;;;;16.55;3.78;;;11.90;99.90;;;;;;5013381;28;20026;-92
2023/10/04 00:44:36;;;;;;;10.15;2.92;;;11.90;99.90;;;;;;5013944;28;20022;-92
2023/10/04 00:47:09;;;;;;;13.15;2.70;;;11.90;99.90;;;;;;5015189;28;20031;-93
2023/10/04 00:49:35;;;;;;;15.82;3.33;;;11.80;99.90;;;;;;5013066;28;20057;-93
2023/10/04 00:52:05;;;;;;;16.73;3.60;;;11.80;99.90;;;;;;5007247;28;20022;-93
2023/10/04 00:54:31;;;;;;;10.43;2.97;;;11.80;99.90;;;;;;5013070;28;20026;-94
2023/10/04 00:56:57;;;;;;;13.93;3.20;;;11.80;99.90;;;;;;4996826;28;20022;-93
2023/10/04 00:59:22;;;;;;;12.48;3.22;;;11.80;99.90;;;;;;4995903;28;20046;-95
2023/10/04 01:01:50;;;;;;;11.60;2.67;;;11.80;99.90;;;;;;4993500;28;20015;-95
2023/10/04 01:04:16;;;;;;;13.70;3.50;;;11.80;99.90;;;;;;4993413;28;20031;-95
2023/10/04 01:06:42;;;;;;;8.35;3.35;;;11.80;99.90;;;;;;4996134;28;20054;-94
2023/10/04 01:09:08;;;;;;;17.40;3.95;;;11.90;99.90;;;;;;4998491;28;20022;-94
2023/10/04 01:11:38;;;;;;;10.38;2.80;;;11.80;99.90;;;;;;4999028;28;20067;-94
2023/10/04 01:14:15;;;;;;;9.27;2.88;;;11.80;99.90;;;;;;4997375;28;20029;-94
2023/10/04 01:16:41;;;;;;;11.63;3.45;;;11.80;99.90;;;;;;4992724;28;20023;-96
2023/10/04 01:19:08;;;;;;;11.38;3.58;;;11.80;99.90;;;;;;4989648;28;20039;-93
2023/10/04 01:21:34;;;;;;;13.73;3.55;;;11.80;99.90;;;;;;4991890;28;20018;-93
2023/10/04 01:24:00;;;;;;;16.10;4.22;;;11.80;99.90;;;;;;4988653;28;20045;-95
2023/10/04 01:26:28;;;;;;;18.70;4.00;;;11.80;99.90;;;;;;4994296;28;20023;-93
2023/10/04 01:29:02;;;;;;;14.35;4.28;;;11.80;99.90;;;;;;4997181;28;20055;-94
2023/10/04 01:31:27;;;;;;;16.10;4.03;;;11.80;99.90;;;;;;4986256;28;20038;-96
2023/10/04 01:33:57;;;;;;;11.68;3.80;;;11.80;99.90;;;;;;4983114;28;20031;-95
2023/10/04 01:36:23;;;;;;;11.57;3.95;;;11.80;99.90;;;;;;4983486;28;20051;-95
2023/10/04 01:38:49;;;;;;;18.17;4.88;;;11.80;99.90;;;;;;4982776;28;20054;-95
2023/10/04 01:41:14;;;;;;;16.38;5.05;;;11.80;99.90;;;;;;4985623;28;20097;-94
2023/10/04 01:43:40;;;;;;;13.93;4.45;;;11.70;99.90;;;;;;4982842;28;20038;-96
2023/10/04 01:46:06;;;;;;;14.43;4.30;;;11.80;99.90;;;;;;4998902;28;20029;-95
2023/10/04 01:48:34;;;;;;;13.95;5.20;;;11.80;99.90;;;;;;4999417;28;20034;-95
2023/10/04 01:51:02;;;;;;;14.65;3.95;;;11.80;99.90;;;;;;4999127;28;20034;-93
2023/10/04 01:53:29;;;;;;;10.45;3.13;;;11.80;99.90;;;;;;5004746;28;20022;-94
2023/10/04 01:55:55;;;;;;;16.35;4.07;;;11.80;99.90;;;;;;4985962;28;20034;-95
2023/10/04 01:58:24;;;;;;;16.17;5.22;;;11.80;99.90;;;;;;5002498;28;20547;-96
2023/10/04 02:00:51;;;;;;;9.88;3.78;;;11.80;99.90;;;;;;5008720;28;20042;-93
2023/10/04 02:03:16;;;;;;;12.40;3.90;;;11.80;99.90;;;;;;4991770;28;20026;-94
2023/10/04 02:05:42;;;;;;;16.83;5.13;;;11.80;99.90;;;;;;5015836;28;20030;-93
2023/10/04 02:08:12;;;;;;;11.40;4.40;;;11.80;99.90;;;;;;4996830;28;20030;-94
2023/10/04 02:10:41;;;;;;;16.80;5.13;;;11.80;99.90;;;;;;4993990;28;20034;-95
2023/10/04 02:13:08;;;;;;;11.60;4.53;;;11.80;99.90;;;;;;4992875;28;20022;-95
2023/10/04 02:15:39;;;;;;;15.13;3.88;;;11.90;99.90;;;;;;4989651;28;20022;-94
2023/10/04 02:18:05;;;;;;;20.70;4.88;;;11.90;99.90;;;;;;4990068;28;20056;-95
2023/10/04 02:20:35;;;;;;;17.15;5.25;;;11.90;99.90;;;;;;5003671;28;20057;-94
2023/10/04 02:23:03;;;;;;;13.52;3.75;;;11.90;99.90;;;;;;4985371;28;20023;-96
2023/10/04 02:25:29;;;;;;;15.70;4.47;;;11.90;99.90;;;;;;5001889;28;20026;-95
2023/10/04 02:28:00;;;;;;;11.57;4.57;;;11.90;99.90;;;;;;4985702;28;20026;-95
2023/10/04 02:30:26;;;;;;;13.52;3.97;;;11.90;99.90;;;;;;4989541;28;20029;-92
2023/10/04 02:32:57;;;;;;;18.27;6.20;;;12.00;99.90;;;;;;5018360;28;20050;-88
2023/10/04 02:35:41;;;;;;;13.90;3.70;;;12.00;99.90;;;;;;5019002;28;20035;-95
2023/10/04 02:38:16;;;;;;;8.90;3.47;;;11.90;99.90;;;;;;4992709;28;20524;-93
2023/10/04 02:40:43;;;;;;;9.82;3.40;;;12.00;99.90;;;;;;5008786;28;20423;-95
2023/10/04 02:43:09;;;;;;;9.50;4.13;;;11.90;99.90;;;;;;5012556;28;20087;-94
2023/10/04 02:45:36;;;;;;;16.13;3.80;;;12.00;99.90;;;;;;4988906;28;20102;-94
2023/10/04 02:48:04;;;;;;;13.60;3.95;;;12.00;99.90;;;;;;4969884;28;20118;-94
2023/10/04 02:50:29;;;;;;;9.85;3.28;;;12.00;99.90;;;;;;4983691;28;20023;-93
2023/10/04 02:52:56;;;;;;;11.23;2.97;;;11.90;99.90;;;;;;4989408;28;20117;-95
2023/10/04 02:55:22;;;;;;;11.48;2.92;;;11.90;99.90;;;;;;4986866;28;20109;-94
2023/10/04 02:57:51;;;;;;;15.25;3.70;;;11.90;99.90;;;;;;4981898;28;20710;-95
2023/10/04 03:00:19;;;;;;;11.77;2.60;;;12.00;99.90;;;;;;4984526;28;20049;-95
2023/10/04 03:02:50;;;;;;;9.38;2.80;;;11.90;99.90;;;;;;4984225;28;20026;-94
2023/10/04 03:05:20;;;;;;;15.88;2.40;;;11.90;99.90;;;;;;4980783;28;20534;-92
2023/10/04 03:07:47;;;;;;;9.93;2.70;;;11.90;99.90;;;;;;4980744;28;20157;-93
2023/10/04 03:10:23;;;;;;;9.55;2.80;;;11.90;99.90;;;;;;4988793;28;20057;-94
2023/10/04 03:12:56;;;;;;;11.35;2.97;;;11.90;99.90;;;;;;4988694;28;20097;-94
2023/10/04 03:15:23;;;;;;;6.68;2.20;;;11.90;99.90;;;;;;4991993;28;20038;-94
2023/10/04 03:17:53;;;;;;;9.40;2.00;;;11.90;99.90;;;;;;5006246;28;20022;-93
2023/10/04 03:20:30;;;;;;;5.90;2.10;;;11.90;99.90;;;;;;4984280;28;20045;-94
2023/10/04 03:22:55;;;;;;;9.40;1.75;;;11.90;99.90;;;;;;4987274;28;20030;-95
2023/10/04 03:25:26;;;;;;;7.18;1.77;;;11.90;99.90;;;;;;4992190;28;20038;-95
2023/10/04 03:27:54;;;;;;;7.43;1.65;;;11.90;99.90;;;;;;5003510;28;20081;-96
2023/10/04 03:30:20;;;;;;;7.25;1.60;;;11.90;99.90;;;;;;4981741;28;20060;-94
2023/10/04 03:32:52;;;;;;;8.00;1.77;;;11.80;99.90;;;;;;4980805;28;20030;-95
2023/10/04 03:35:20;;;;;;;5.85;1.52;;;11.80;99.90;;;;;;4982909;28;20046;-95
2023/10/04 03:38:07;;;;;;;5.00;1.60;;;11.80;99.90;;;;;;4986060;28;20083;-94
2023/10/04 03:40:37;;;;;;;5.72;1.30;;;11.80;99.90;;;;;;4983481;28;20034;-95
2023/10/04 03:43:07;;;;;;;9.35;1.75;;;11.80;99.90;;;;;;4979728;28;20030;-96
2023/10/04 03:45:35;;;;;;;4.63;1.60;;;11.80;99.90;;;;;;4979012;28;20022;-95
2023/10/04 03:48:01;;;;;;;6.82;1.40;;;11.80;99.90;;;;;;4979424;28;20491;-95
2023/10/04 03:50:27;;;;;;;6.55;1.38;;;11.80;99.90;;;;;;4978928;28;20033;-95
2023/10/04 03:52:57;;;;;;;5.07;1.30;;;11.80;99.90;;;;;;4979531;28;20499;-95
2023/10/04 03:55:26;;;;;;;14.55;1.80;;;11.80;99.90;;;;;;4996218;28;20026;-94
2023/10/04 03:57:53;;;;;;;6.88;1.55;;;11.70;99.90;;;;;;4978743;28;20033;-93
2023/10/04 04:00:21;;;;;;;9.48;1.58;;;11.70;99.90;;;;;;4999780;28;20559;-96
2023/10/04 04:02:49;;;;;;;5.07;1.60;;;11.70;99.90;;;;;;4984247;28;20026;-96
2023/10/04 04:05:14;;;;;;;5.63;1.33;;;11.70;99.90;;;;;;5006966;28;20026;-90
2023/10/04 04:07:41;;;;;;;5.75;1.50;;;11.70;99.90;;;;;;5001714;28;20102;-90
2023/10/04 04:10:08;;;;;;;6.72;1.45;;;11.60;99.90;;;;;;5001496;28;20022;-89
2023/10/04 04:12:35;;;;;;;9.02;1.60;;;11.60;99.90;;;;;;4984692;28;20086;-93
2023/10/04 04:15:03;;;;;;;7.45;1.63;;;11.60;99.90;;;;;;4980582;28;20050;-95
2023/10/04 04:17:29;;;;;;;10.07;2.30;;;11.60;99.90;;;;;;4980754;28;20022;-94
2023/10/04 04:19:55;;;;;;;5.32;1.73;;;11.50;99.90;;;;;;4987440;28;20088;-95
2023/10/04 04:22:23;;;;;;;6.30;1.45;;;11.50;99.90;;;;;;4979397;28;20423;-95
2023/10/04 04:24:52;;;;;;;11.52;2.33;;;11.40;99.90;;;;;;4981713;28;20037;-95
2023/10/04 04:27:22;;;;;;;11.90;1.75;;;11.40;99.90;;;;;;4982675;28;20034;-94
2023/10/04 04:29:52;;;;;;;7.07;1.60;;;11.40;99.90;;;;;;5005623;28;20029;-94
2023/10/04 04:32:26;;;;;;;4.80;1.60;;;11.30;99.90;;;;;;5010421;28;20019;-93
2023/10/04 04:34:53;;;;;;;5.63;1.65;;;11.30;99.90;;;;;;5008696;28;20042;-94
2023/10/04 04:37:22;;;;;;;6.22;1.70;;;11.30;99.90;;;;;;4988870;28;20062;-92
2023/10/04 04:39:48;;;;;;;7.97;1.63;;;11.20;99.90;;;;;;4993632;28;20085;-93
2023/10/04 04:42:20;;;;;;;7.10;2.03;;;11.20;99.90;;;;;;5008476;28;20026;-94
2023/10/04 04:44:46;;;;;;;12.23;2.22;;;11.20;99.90;;;;;;5008664;28;20116;-94
2023/10/04 04:47:12;;;;;;;5.05;1.50;;;11.20;99.90;;;;;;4988688;28;20104;-94
2023/10/04 04:49:38;;;;;;;8.07;1.60;;;11.10;99.90;;;;;;4989695;28;20037;-94
2023/10/04 04:52:09;;;;;;;2.88;1.15;;;11.10;99.90;;;;;;4994913;28;20073;-95
2023/10/04 04:54:35;;;;;;;7.75;1.67;;;11.10;99.90;;;;;;4992540;28;20038;-94
2023/10/04 04:57:01;;;;;;;6.22;1.27;;;11.10;99.90;;;;;;4997152;28;20035;-92
2023/10/04 04:59:26;;;;;;;4.90;1.30;;;11.00;99.90;;;;;;4998437;28;20042;-94
2023/10/04 05:01:55;;;;;;;3.50;1.10;;;11.00;99.90;;;;;;4995079;28;20026;-94
2023/10/04 05:04:22;;;;;;;6.82;1.55;;;11.00;99.90;;;;;;4996690;28;20041;-92
2023/10/04 05:06:49;;;;;;;3.63;1.25;;;11.00;99.90;;;;;;5014553;28;20027;-94
2023/10/04 05:09:17;;;;;;;8.07;1.60;;;11.00;99.90;;;;;;5017966;28;20037;-90
2023/10/04 05:11:43;;;;;;;5.60;1.42;;;11.00;99.90;;;;;;4999102;28;20049;-94
2023/10/04 05:14:10;;;;;;;4.22;1.40;;;11.00;99.90;;;;;;4999318;28;20042;-93
2023/10/04 05:16:35;;;;;;;5.35;1.50;;;10.90;99.90;;;;;;5016891;28;20053;-94
2023/10/04 05:19:09;;;;;;;4.57;1.60;;;10.90;99.90;;;;;;5013118;28;20034;-91
2023/10/04 05:21:34;;;;;;;4.35;1.20;;;10.90;99.90;;;;;;5018722;28;20099;-92
2023/10/04 05:24:00;;;;;;;8.95;1.70;;;11.00;99.90;;;;;;5015462;28;20046;-93
2023/10/04 05:26:27;;;;;;;5.82;1.42;;;10.90;99.90;;;;;;4992925;28;20041;-92
2023/10/04 05:28:52;;;;;;;4.22;1.50;;;10.90;99.90;;;;;;4998652;28;20033;-92
2023/10/04 05:31:18;;;;;;;6.70;1.55;;;10.90;99.90;;;;;;5019448;28;20010;-88
2023/10/04 05:33:49;;;;;;;6.38;1.55;;;10.90;99.90;;;;;;5000605;28;20034;-92
2023/10/04 05:36:15;;;;;;;6.05;1.63;;;10.90;99.90;;;;;;4992047;28;20099;-95
2023/10/04 05:38:40;;;;;;;5.07;1.48;;;10.90;99.90;;;;;;5005911;28;20014;-94
2023/10/04 05:41:09;;;;;;;10.57;2.15;;;10.90;99.90;;;;;;4992019;28;20038;-89
2023/10/04 05:43:35;;;;;;;6.72;1.70;;;10.90;99.90;;;;;;5009147;28;20010;-88
2023/10/04 05:46:03;;;;;;;8.82;2.10;;;10.90;99.90;;;;;;4991130;28;20046;-94
2023/10/04 05:48:29;;;;;;;13.85;1.73;;;10.90;99.90;;;;;;4989700;28;20015;-93
2023/10/04 05:50:55;;;;;;;6.68;1.63;;;10.90;99.90;;;;;;4989823;28;20057;-93
2023/10/04 05:53:21;;;;;;;10.38;2.45;;;10.90;99.90;;;;;;4991074;28;20034;-87
2023/10/04 05:55:48;;;;;;;7.55;1.55;;;10.90;99.90;;;;;;5008223;28;20019;-87
2023/10/04 05:58:15;;;;;;;10.13;2.33;;;10.80;99.90;;;;;;4993418;28;20017;-90
2023/10/04 06:00:51;;;;;;;6.53;2.03;;;10.80;99.90;;;;;;4992033;28;20027;-90
2023/10/04 06:03:18;;;;;;;12.60;2.05;;;10.80;99.90;;;;;;5010283;28;20015;-89
2023/10/04 06:05:44;;;;;;;5.95;1.70;;;10.80;99.90;;;;;;5008962;28;20014;-95
2023/10/04 06:08:23;;;;;;;9.93;3.15;;;10.80;99.90;;;;;;5009908;28;20026;-88
2023/10/04 06:10:53;;;;;;;6.75;2.00;;;10.80;99.90;;;;;;5011094;28;20046;-86
2023/10/04 06:13:22;;;;;;;7.28;1.55;;;10.80;99.90;;;;;;5008256;28;20011;-89
2023/10/04 06:15:50;;;;;;;7.65;1.70;;;10.80;99.90;;;;;;4993146;28;20015;-91
2023/10/04 06:18:16;;;;;;;10.43;1.80;;;10.80;99.90;;;;;;4995387;28;20034;-88
2023/10/04 06:20:43;;;;;;;6.65;1.67;;;10.80;99.90;;;;;;4986586;28;20053;-90
2023/10/04 06:23:11;;;;;;;4.35;1.67;;;10.80;99.90;;;;;;4992741;28;20034;-90
2023/10/04 06:25:48;;;;;;;5.88;1.73;;;10.80;99.90;;;;;;4983102;28;20026;-91
2023/10/04 06:28:14;;;;;;;9.70;2.00;;;10.80;99.90;;;;;;4995096;28;20031;-87
2023/10/04 06:30:42;;;;;;;10.48;2.08;;;10.80;99.90;;;;;;5008642;28;20317;-89
2023/10/04 06:33:15;;;;;;;6.72;1.98;;;10.80;99.90;;;;;;4993024;28;20006;-89
2023/10/04 06:35:43;;;;;;;8.07;1.70;;;10.90;99.90;;;;;;4990780;28;20039;-87
2023/10/04 06:38:10;;;;;;;6.38;1.90;;;10.90;99.90;;;;;;4988435;28;20065;-87
2023/10/04 06:40:39;;;;;;;8.25;1.60;;;10.90;99.90;;;;;;4990851;28;20089;-87
2023/10/04 06:43:08;;;;;;;7.72;1.50;;;11.00;99.90;;;;;;4986177;28;20007;-90
2023/10/04 06:45:35;;;;;;;5.72;1.73;;;11.00;99.90;;;;;;4992898;28;20062;-85
2023/10/04 06:48:03;;;;;;;4.88;1.70;;;11.00;99.90;;;;;;4984452;28;20019;-88
2023/10/04 06:50:32;;;;;;;7.63;2.17;;;11.00;99.90;;;;;;5000548;28;20019;-85
2023/10/04 06:52:59;;;;;;;10.70;1.77;;;11.00;99.90;;;;;;4983799;28;20025;-86
2023/10/04 06:55:28;;;;;;;11.95;1.80;;;11.00;99.90;;;;;;5000227;28;20034;-90
2023/10/04 06:57:54;;;;;;;5.05;1.70;;;11.10;99.90;;;;;;4999523;28;20026;-91
2023/10/04 07:00:23;;;;;;;6.43;1.73;;;11.10;99.90;;;;;;4999278;28;20050;-90
2023/10/04 07:02:58;;;;;;;6.78;1.70;;;11.10;99.90;;;;;;4982829;28;20055;-91
2023/10/04 07:05:26;;;;;;;7.53;2.00;;;11.10;99.90;;;;;;5009807;28;20046;-94
2023/10/04 07:07:54;;;;;;;8.57;1.85;;;11.10;99.90;;;;;;4988785;28;20103;-95
2023/10/04 07:10:21;;;;;;;9.20;2.15;;;11.10;99.90;;;;;;4986465;28;20030;-95
2023/10/04 07:12:53;;;;;;;8.38;1.70;;;11.10;99.90;;;;;;4985403;28;20015;-93
2023/10/04 07:15:19;;;;;;;8.13;2.30;;;11.10;99.90;;;;;;4992219;28;20061;-96
2023/10/04 07:17:47;;;;;;;8.65;2.10;;;11.20;99.90;;;;;;4986843;28;20029;-94
2023/10/04 07:20:14;;;;;;;5.72;1.60;;;11.20;99.90;;;;;;5005801;28;20045;-95
2023/10/04 07:22:51;;;;;;;17.95;2.00;;;11.20;99.90;;;;;;4986805;28;20019;-90
2023/10/04 07:25:19;;;;;;;17.55;2.25;;;11.20;99.90;;;;;;5000283;28;20023;-94
2023/10/04 07:27:46;;;;;;;9.50;2.95;;;11.20;99.90;;;;;;4993072;28;20022;-95
2023/10/04 07:30:13;;;;;;;5.95;1.73;;;11.20;99.90;;;;;;4965778;28;20022;-93
2023/10/04 07:32:48;;;;;;;13.02;2.40;;;11.30;99.90;;;;;;4983201;28;20057;-96
2023/10/04 07:35:18;;;;;;;5.43;1.92;;;11.30;99.90;;;;;;4991909;28;20057;-93
2023/10/04 07:37:45;;;;;;;9.52;2.28;;;11.30;99.90;;;;;;4988505;28;20030;-93
2023/10/04 07:40:15;;;;;;;8.35;2.00;;;11.40;99.90;;;;;;4989093;28;20049;-95
2023/10/04 07:42:45;;;;;;;7.70;2.40;;;11.30;99.90;;;;;;4996343;28;20030;-92
2023/10/04 07:45:12;;;;;;;7.07;1.95;;;11.40;99.90;;;;;;5000313;28;20058;-90
2023/10/04 07:47:41;;;;;;;12.27;2.85;;;11.40;99.90;;;;;;4992979;28;20033;-93
2023/10/04 07:50:11;;;;;;;8.00;1.90;;;11.40;99.90;;;;;;5007354;28;20052;-95
2023/10/04 07:52:38;;;;;;;6.53;1.92;;;11.50;99.90;;;;;;4984751;28;20026;-92
2023/10/04 07:55:05;;;;;;;10.57;2.30;;;11.50;99.90;;;;;;4999852;28;20496;-95
2023/10/04 07:57:37;;;;;;;11.85;2.55;;;11.50;99.90;;;;;;4980511;28;20022;-92
2023/10/04 08:00:04;;;;;;;9.35;2.38;;;11.50;99.90;;;;;;4982905;28;20045;-96
2023/10/04 08:02:31;;;;;;;12.30;2.50;;;11.60;99.90;;;;;;4984352;28;20026;-94
2023/10/04 08:04:57;;;;;;;12.60;2.60;;;11.60;99.90;;;;;;4986430;28;20113;-94
2023/10/04 08:07:23;;;;;;;6.28;2.00;;;11.60;99.90;;;;;;4983769;28;20484;-94
2023/10/04 08:09:48;;;;;;;10.20;2.70;;;11.70;99.90;;;;;;4983438;28;20047;-93
2023/10/04 08:12:15;;;;;;;10.73;2.90;;;11.70;99.90;;;;;;4990242;28;20022;-92
2023/10/04 08:14:40;;;;;;;12.27;2.83;;;11.70;99.90;;;;;;5015157;28;20128;-94
2023/10/04 08:17:06;;;;;;;11.18;2.85;;;11.80;99.90;;;;;;4996941;28;20110;-93
2023/10/04 08:19:33;;;;;;;10.57;2.97;;;11.80;99.90;;;;;;4993250;28;20034;-96
2023/10/04 08:21:58;;;;;;;13.27;3.08;;;11.90;99.90;;;;;;4994971;28;20026;-93
2023/10/04 08:24:24;;;;;;;10.45;2.50;;;11.90;99.90;;;;;;5015636;28;20038;-95
2023/10/04 08:26:50;;;;;;;8.30;2.67;;;11.90;99.90;;;;;;4993337;28;20041;-95
2023/10/04 08:29:16;;;;;;;10.27;3.08;;;12.00;99.90;;;;;;5002040;28;20033;-95
2023/10/04 08:31:42;;;;;;;10.75;3.40;;;12.10;99.90;;;;;;4982884;28;20029;-96
2023/10/04 08:34:07;;;;;;;13.30;3.35;;;12.10;99.90;;;;;;4980684;28;20106;-94
2023/10/04 08:36:33;;;;;;;9.70;3.28;;;12.20;99.90;;;;;;4980674;28;20065;-96
2023/10/04 08:39:10;;;;;;;9.20;3.08;;;12.20;99.90;;;;;;4984360;28;20040;-95
2023/10/04 08:41:37;;;;;;;13.20;3.65;;;12.20;99.90;;;;;;4981535;28;20076;-96
2023/10/04 08:44:03;;;;;;;10.57;3.47;;;12.30;99.90;;;;;;4987851;28;20050;-94
2023/10/04 08:46:31;;;;;;;7.45;2.70;;;12.30;99.90;;;;;;4959868;28;20503;-95
2023/10/04 08:48:58;;;;;;;15.25;3.50;;;12.40;99.90;;;;;;4979550;28;20039;-94
2023/10/04 08:52:03;;;;;;;9.80;2.92;;;12.50;99.90;;;;;;4986619;28;20156;-94
2023/10/04 08:54:29;;;;;;;8.98;2.88;;;12.50;99.90;;;;;;4967762;28;20484;-94
2023/10/04 08:57:14;;;;;;;13.63;3.88;;;12.60;99.90;;;;;;4991525;28;20121;-94
2023/10/04 08:59:42;;;;;;;10.82;3.03;;;12.60;99.90;;;;;;5007770;28;20042;-93
2023/10/04 09:02:13;;;;;;;12.32;3.03;;;12.70;99.90;;;;;;4995029;28;20018;-94
2023/10/04 09:04:39;;;;;;;12.10;3.10;;;12.60;99.90;;;;;;4994875;28;20029;-92
2023/10/04 09:07:08;;;;;;;15.60;3.53;;;12.70;99.90;;;;;;4989550;28;20030;-95
2023/10/04 09:09:37;;;;;;;11.15;2.92;;;12.70;99.90;;;;;;5021594;28;20033;-95
2023/10/04 09:12:06;;;;;;;15.07;3.65;;;12.80;99.90;;;;;;4994932;28;20030;-94
2023/10/04 09:14:37;;;;;;;;;;;12.80;99.90;;;;;;4987887;28;20054;-96
2023/10/04 09:17:05;;;;;;;7.30;2.55;;;12.80;99.90;;;;;;4981038;28;19906;-93
2023/10/04 09:19:33;;;;;;;12.70;4.50;;;12.80;99.90;;;;;;5000933;28;20054;-95
2023/10/04 09:22:05;;;;;;;12.02;3.20;;;12.90;99.90;;;;;;4979270;28;20041;-96
2023/10/04 09:24:51;;;;;;;8.73;3.08;;;12.90;99.90;;;;;;4999733;28;20028;-95
2023/10/04 09:27:16;;;;;;;20.25;7.45;;;13.00;99.90;;;;;;4995414;28;20153;-93
2023/10/04 09:29:42;;;;;;;11.50;3.10;;;13.10;99.90;;;;;;5006760;28;20022;-94
2023/10/04 09:32:09;;;;;;;11.20;3.22;;;13.20;99.90;;;;;;4995860;28;20018;-90
2023/10/04 09:34:34;;;;;;;13.43;3.00;;;13.30;99.90;;;;;;4995655;28;20054;-92
2023/10/04 09:37:01;;;;;;;9.50;3.33;;;13.40;99.90;;;;;;4997673;28;20042;-94
2023/10/04 09:39:31;;;;;;;17.88;3.50;;;13.60;99.90;;;;;;4979234;28;20073;-94
2023/10/04 09:42:01;;;;;;;11.25;3.50;;;13.80;99.90;;;;;;4982137;28;20023;-94
2023/10/04 09:44:31;;;;;;;10.88;3.17;;;14.00;99.90;;;;;;4981636;28;20034;-96
2023/10/04 09:47:00;;;;;;;12.55;2.97;;;14.20;99.90;;;;;;4991652;28;20050;-94
2023/10/04 09:49:33;;;;;;;14.80;4.70;;;14.40;99.90;;;;;;4988157;28;20050;-95
2023/10/04 09:52:11;;;;;;;13.98;4.63;;;14.70;99.90;;;;;;5002078;28;20050;-92
2023/10/04 09:54:37;;;;;;;9.15;4.00;;;14.80;99.90;;;;;;4987692;28;20419;-94
2023/10/04 09:57:07;;;;;;;15.30;3.75;;;14.90;99.90;;;;;;5008818;28;20074;-96
2023/10/04 09:59:34;;;;;;;12.85;3.42;;;14.90;99.90;;;;;;4985634;28;20116;-95
2023/10/04 10:02:02;;;;;;;14.75;3.63;;;14.90;99.90;;;;;;5003442;28;20088;-95
2023/10/04 10:04:29;;;;;;;13.25;3.78;;;14.90;99.90;;;;;;4968497;28;20030;-96
2023/10/04 10:07:15;;;;;;;11.52;3.28;;;14.80;99.90;;;;;;4994527;28;20037;-96
2023/10/04 10:09:44;;;;;;;10.45;3.05;;;14.80;99.90;;;;;;4977779;28;20035;-96
2023/10/04 10:12:10;;;;;;;12.55;4.63;;;14.70;99.90;;;;;;4983110;28;20391;-96
2023/10/04 10:14:37;;;;;;;10.18;3.65;;;14.70;99.90;;;;;;4994734;28;20026;-96
2023/10/04 10:17:06;;;;;;;16.23;4.10;;;14.80;99.90;;;;;;4995690;28;20026;-96
2023/10/04 10:19:32;;;;;;;12.82;3.97;;;14.80;99.90;;;;;;4997113;28;20034;-95
2023/10/04 10:22:15;;;;;;;10.85;3.33;;;15.00;99.90;;;;;;5034924;28;20044;-89
2023/10/04 10:25:04;;;;;;;10.35;3.35;;;15.20;99.90;;;;;;4991811;28;20591;-91
2023/10/04 10:27:29;;;;;;;12.43;3.33;;;15.50;99.90;;;;;;4984229;28;20022;-92
2023/10/04 10:30:02;;;;;;;13.43;4.10;;;15.70;99.90;;;;;;5000470;28;20037;-94
2023/10/04 10:32:28;;;;;;;17.10;3.97;;;15.90;99.90;;;;;;4988908;28;20090;-95
2023/10/04 10:35:08;;;;;;;14.27;3.80;;;16.10;99.90;;;;;;5012257;28;20045;-95
2023/10/04 10:37:39;;;;;;;9.98;3.78;;;16.30;99.90;;;;;;4984131;28;20294;-94
2023/10/04 10:40:35;;;;;;;12.27;3.70;;;16.50;99.90;;;;;;4997049;28;20053;-94
2023/10/04 10:43:07;;;;;;;13.73;3.80;;;16.80;99.90;;;;;;5033238;28;20053;-95
2023/10/04 10:45:34;;;;;;;17.65;4.78;;;16.90;99.90;;;;;;5015414;28;20022;-96
2023/10/04 10:48:06;;;;;;;7.60;2.83;;;16.80;99.90;;;;;;4995121;28;20030;-95
2023/10/04 10:50:40;;;;;;;13.32;4.28;;;16.70;99.90;;;;;;5015707;28;20164;-96
2023/10/04 10:53:11;;;;;;;17.77;3.80;;;16.40;99.90;;;;;;4991486;28;20018;-96
2023/10/04 10:55:41;;;;;;;11.93;3.88;;;16.30;99.90;;;;;;5015421;28;20018;-96
2023/10/04 10:58:12;;;;;;;12.57;3.97;;;16.20;99.90;;;;;;4998526;28;20019;-95
2023/10/04 11:00:39;;;;;;;18.70;4.82;;;16.00;99.90;;;;;;4992966;28;20037;-93
2023/10/04 11:03:06;;;;;;;12.55;3.92;;;15.90;99.90;;;;;;4995438;28;20026;-92
2023/10/04 11:05:32;;;;;;;15.85;3.72;;;15.80;99.90;;;;;;4997975;28;20536;-95
2023/10/04 11:07:58;;;;;;;13.75;3.63;;;15.80;99.90;;;;;;5014544;28;20034;-94
2023/10/04 11:10:25;;;;;;;13.82;3.70;;;15.70;99.90;;;;;;4999770;28;20057;-89
2023/10/04 11:12:55;;;;;;;14.77;3.80;;;15.80;99.90;;;;;;5008340;28;20035;-92
2023/10/04 11:15:23;;;;;;;12.88;3.88;;;15.90;99.90;;;;;;4982742;28;20086;-88
2023/10/04 11:17:50;;;;;;;9.77;3.58;;;16.10;99.90;;;;;;5017890;28;20018;-91
2023/10/04 11:20:17;;;;;;;13.98;3.83;;;16.20;99.90;;;;;;5001145;28;20134;-88
2023/10/04 11:22:46;;;;;;;11.07;4.00;;;16.50;99.90;;;;;;5009276;28;20026;-89
2023/10/04 11:25:13;;;;;;;10.93;3.38;;;16.70;99.90;;;;;;4981390;28;20027;-93
2023/10/04 11:27:42;;;;;;;22.27;5.47;;;16.70;99.90;;;;;;5013559;28;20022;-90
2023/10/04 11:30:11;;;;;;;14.20;3.33;;;16.70;99.90;;;;;;5016627;28;20041;-91
2023/10/04 11:32:41;;;;;;;12.27;3.53;;;16.60;99.90;;;;;;5011398;28;20022;-93
2023/10/04 11:35:11;;;;;;;17.20;3.75;;;16.70;99.90;;;;;;4995937;28;20364;-96
2023/10/04 11:37:48;;;;;;;;;;;16.80;99.90;;;;;;5012762;28;20101;-95
2023/10/04 11:40:17;;;;;;;14.38;3.60;;;16.90;99.90;;;;;;4993416;28;19925;-96
2023/10/04 11:42:46;;;;;;;18.10;3.88;;;16.90;99.90;;;;;;4994852;28;20018;-95
2023/10/04 11:45:19;;;;;;;9.07;3.33;;;16.90;99.90;;;;;;4984510;28;20057;-94
2023/10/04 11:48:04;;;;;;;13.88;3.50;;;16.70;99.90;;;;;;5032843;28;20037;-96
2023/10/04 11:50:50;;;;;;;13.68;4.32;;;16.60;99.90;;;;;;4992017;28;20039;-92
2023/10/04 11:53:55;;;;;;;16.17;3.13;;;16.50;99.90;;;;;;4966938;28;20019;-89
2023/10/04 11:56:21;;;;;;;15.52;3.95;;;16.40;99.90;;;;;;4960573;28;20035;-92
2023/10/04 11:58:57;;;;;;;14.88;4.63;;;16.40;99.90;;;;;;4999464;28;20082;-88
2023/10/04 12:01:24;;;;;;;11.77;3.42;;;16.70;99.90;;;;;;4986207;28;20093;-87
2023/10/04 12:03:54;;;;;;;12.65;3.50;;;17.00;99.90;;;;;;5018721;28;20022;-90
2023/10/04 12:06:27;;;;;;;9.15;3.35;;;17.30;99.90;;;;;;5002420;28;20022;-91
2023/10/04 12:08:54;;;;;;;12.82;3.80;;;17.40;99.90;;;;;;5019219;28;20026;-89
2023/10/04 12:11:25;;;;;;;12.35;3.85;;;17.30;99.90;;;;;;5002391;28;20110;-87
2023/10/04 12:13:51;;;;;;;14.30;4.07;;;17.30;99.90;;;;;;5002269;28;20022;-87
2023/10/04 12:16:17;;;;;;;11.13;4.22;;;17.20;99.90;;;;;;5002272;28;20033;-89
2023/10/04 12:18:47;;;;;;;12.48;3.78;;;17.10;99.90;;;;;;5018848;28;20041;-89
2023/10/04 12:21:14;;;;;;;11.73;2.92;;;17.00;99.90;;;;;;4997120;28;20134;-89
2023/10/04 12:23:40;;;;;;;14.32;4.25;;;16.90;99.90;;;;;;5013031;28;20015;-91
2023/10/04 12:26:06;;;;;;;12.75;3.08;;;16.80;99.90;;;;;;5007448;28;20045;-88
2023/10/04 12:28:31;;;;;;;17.33;4.05;;;16.70;99.90;;;;;;4990010;28;20015;-87
2023/10/04 12:31:02;;;;;;;12.82;3.50;;;16.60;99.90;;;;;;4991378;28;20043;-86
2023/10/04 12:33:29;;;;;;;;;;;16.40;99.90;;;;;;4987373;28;20011;-87
2023/10/04 12:35:56;;;;;;;9.65;3.85;;;16.30;99.90;;;;;;5009309;28;19913;-86
2023/10/04 12:38:24;;;;;;;14.52;3.83;;;16.20;99.90;;;;;;4989917;28;20039;-86
2023/10/04 12:40:50;;;;;;;13.02;3.70;;;16.00;99.90;;;;;;5016140;28;20066;-88
2023/10/04 12:43:16;;;;;;;7.35;3.15;;;15.90;99.90;;;;;;5001705;28;20303;-86
2023/10/04 12:45:42;;;;;;;15.20;4.00;;;15.90;99.90;;;;;;5003941;28;20077;-92
2023/10/04 12:48:07;;;;;;;12.95;4.05;;;15.70;99.90;;;;;;5037401;28;20022;-89